sensor_id;sensor_type;location;lat;lon;timestamp;P1;durP1;ratioP1;P2;durP2;ratioP2
76593;SDS011;65482;50.240;14.302;2023-03-23T00:00:32;10.48;;;4.50;;
76593;SDS011;65482;50.240;14.302;2023-03-23T00:03:22;9.73;;;4.57;;
76593;SDS011;65482;50.240;14.302;2023-03-23T00:06:15;10.23;;;4.57;;
76593;SDS011;65482;50.240;14.302;2023-03-23T00:08:48;6.38;;;3.55;;
76593;SDS011;65482;50.240;14.302;2023-03-23T00:11:35;7.03;;;3.38;;
76593;SDS011;65482;50.240;14.302;2023-03-23T00:14:01;6.28;;;3.33;;
76593;SDS011;65482;50.240;14.302;2023-03-23T00:16:30;6.05;;;2.92;;
76593;SDS011;65482;50.240;14.302;2023-03-23T00:19:05;5.03;;;3.40;;
76593;SDS011;65482;50.240;14.302;2023-03-23T00:21:34;6.55;;;3.35;;
76593;SDS011;65482;50.240;14.302;2023-03-23T00:24:02;7.55;;;3.45;;
76593;SDS011;65482;50.240;14.302;2023-03-23T00:26:33;5.03;;;2.92;;
76593;SDS011;65482;50.240;14.302;2023-03-23T00:29:01;6.18;;;3.35;;
76593;SDS011;65482;50.240;14.302;2023-03-23T00:31:32;7.28;;;3.40;;
76593;SDS011;65482;50.240;14.302;2023-03-23T00:34:01;8.95;;;3.45;;
76593;SDS011;65482;50.240;14.302;2023-03-23T00:36:33;4.32;;;2.85;;
76593;SDS011;65482;50.240;14.302;2023-03-23T00:39:01;6.20;;;3.22;;
76593;SDS011;65482;50.240;14.302;2023-03-23T00:41:32;4.97;;;3.10;;
76593;SDS011;65482;50.240;14.302;2023-03-23T00:47:30;6.57;;;3.08;;
76593;SDS011;65482;50.240;14.302;2023-03-23T00:50:32;5.07;;;3.50;;
76593;SDS011;65482;50.240;14.302;2023-03-23T00:53:34;10.18;;;3.40;;
76593;SDS011;65482;50.240;14.302;2023-03-23T00:56:18;6.90;;;3.83;;
76593;SDS011;65482;50.240;14.302;2023-03-23T00:59:12;4.55;;;3.13;;
76593;SDS011;65482;50.240;14.302;2023-03-23T01:01:48;8.48;;;3.33;;
76593;SDS011;65482;50.240;14.302;2023-03-23T01:04:19;6.93;;;3.17;;
76593;SDS011;65482;50.240;14.302;2023-03-23T01:06:54;7.05;;;3.30;;
76593;SDS011;65482;50.240;14.302;2023-03-23T01:09:32;5.35;;;3.35;;
76593;SDS011;65482;50.240;14.302;2023-03-23T01:12:10;5.97;;;3.35;;
76593;SDS011;65482;50.240;14.302;2023-03-23T01:14:46;7.05;;;3.45;;
76593;SDS011;65482;50.240;14.302;2023-03-23T01:17:39;7.10;;;3.70;;
76593;SDS011;65482;50.240;14.302;2023-03-23T01:20:28;5.63;;;3.50;;
76593;SDS011;65482;50.240;14.302;2023-03-23T01:23:03;5.28;;;3.40;;
76593;SDS011;65482;50.240;14.302;2023-03-23T01:25:42;5.28;;;3.20;;
76593;SDS011;65482;50.240;14.302;2023-03-23T01:28:41;5.30;;;3.28;;
76593;SDS011;65482;50.240;14.302;2023-03-23T01:31:34;7.78;;;3.50;;
76593;SDS011;65482;50.240;14.302;2023-03-23T01:34:17;6.55;;;3.63;;
76593;SDS011;65482;50.240;14.302;2023-03-23T01:36:57;7.10;;;3.67;;
76593;SDS011;65482;50.240;14.302;2023-03-23T01:39:50;8.20;;;4.57;;
76593;SDS011;65482;50.240;14.302;2023-03-23T01:42:37;7.60;;;3.80;;
76593;SDS011;65482;50.240;14.302;2023-03-23T01:45:34;9.82;;;3.85;;
76593;SDS011;65482;50.240;14.302;2023-03-23T01:48:32;7.30;;;3.65;;
76593;SDS011;65482;50.240;14.302;2023-03-23T01:51:17;6.50;;;3.58;;
76593;SDS011;65482;50.240;14.302;2023-03-23T01:57:11;6.50;;;3.95;;
76593;SDS011;65482;50.240;14.302;2023-03-23T01:59:57;7.05;;;3.75;;
76593;SDS011;65482;50.240;14.302;2023-03-23T02:02:54;5.57;;;3.28;;
76593;SDS011;65482;50.240;14.302;2023-03-23T02:05:34;4.90;;;3.70;;
76593;SDS011;65482;50.240;14.302;2023-03-23T02:08:38;6.93;;;3.80;;
76593;SDS011;65482;50.240;14.302;2023-03-23T02:11:13;6.50;;;3.83;;
76593;SDS011;65482;50.240;14.302;2023-03-23T02:13:58;7.85;;;4.50;;
76593;SDS011;65482;50.240;14.302;2023-03-23T02:17:06;8.20;;;4.70;;
76593;SDS011;65482;50.240;14.302;2023-03-23T02:23:19;11.60;;;6.15;;
76593;SDS011;65482;50.240;14.302;2023-03-23T02:26:11;12.38;;;7.20;;
76593;SDS011;65482;50.240;14.302;2023-03-23T02:32:12;13.20;;;7.65;;
76593;SDS011;65482;50.240;14.302;2023-03-23T02:34:58;15.05;;;7.70;;
76593;SDS011;65482;50.240;14.302;2023-03-23T02:37:53;12.52;;;7.57;;
76593;SDS011;65482;50.240;14.302;2023-03-23T02:40:55;16.20;;;7.85;;
76593;SDS011;65482;50.240;14.302;2023-03-23T02:43:44;15.82;;;8.23;;
76593;SDS011;65482;50.240;14.302;2023-03-23T02:46:37;15.05;;;7.68;;
76593;SDS011;65482;50.240;14.302;2023-03-23T02:49:36;15.68;;;7.93;;
76593;SDS011;65482;50.240;14.302;2023-03-23T02:52:23;14.02;;;7.35;;
76593;SDS011;65482;50.240;14.302;2023-03-23T02:54:55;13.85;;;7.93;;
76593;SDS011;65482;50.240;14.302;2023-03-23T02:57:42;12.98;;;7.25;;
76593;SDS011;65482;50.240;14.302;2023-03-23T03:00:44;15.27;;;7.90;;
76593;SDS011;65482;50.240;14.302;2023-03-23T03:03:35;14.38;;;8.02;;
76593;SDS011;65482;50.240;14.302;2023-03-23T03:16:03;17.23;;;8.10;;
76593;SDS011;65482;50.240;14.302;2023-03-23T03:19:09;13.80;;;8.23;;
76593;SDS011;65482;50.240;14.302;2023-03-23T03:21:59;14.88;;;8.60;;
76593;SDS011;65482;50.240;14.302;2023-03-23T03:24:47;14.73;;;9.35;;
76593;SDS011;65482;50.240;14.302;2023-03-23T03:27:29;16.30;;;8.80;;
76593;SDS011;65482;50.240;14.302;2023-03-23T03:30:13;14.32;;;8.77;;
76593;SDS011;65482;50.240;14.302;2023-03-23T03:32:55;17.00;;;9.00;;
76593;SDS011;65482;50.240;14.302;2023-03-23T03:35:41;14.55;;;9.40;;
76593;SDS011;65482;50.240;14.302;2023-03-23T03:38:40;16.13;;;9.20;;
76593;SDS011;65482;50.240;14.302;2023-03-23T03:41:28;16.83;;;8.95;;
76593;SDS011;65482;50.240;14.302;2023-03-23T03:44:08;15.35;;;9.10;;
76593;SDS011;65482;50.240;14.302;2023-03-23T03:46:52;11.32;;;7.97;;
76593;SDS011;65482;50.240;14.302;2023-03-23T03:49:29;20.50;;;9.23;;
76593;SDS011;65482;50.240;14.302;2023-03-23T03:52:11;17.13;;;8.93;;
76593;SDS011;65482;50.240;14.302;2023-03-23T03:54:55;16.65;;;9.05;;
76593;SDS011;65482;50.240;14.302;2023-03-23T03:57:35;17.52;;;9.45;;
76593;SDS011;65482;50.240;14.302;2023-03-23T04:00:07;17.55;;;9.48;;
76593;SDS011;65482;50.240;14.302;2023-03-23T04:03:08;15.63;;;8.65;;
76593;SDS011;65482;50.240;14.302;2023-03-23T04:05:46;19.08;;;9.95;;
76593;SDS011;65482;50.240;14.302;2023-03-23T04:18:02;19.58;;;8.88;;
76593;SDS011;65482;50.240;14.302;2023-03-23T04:20:56;17.00;;;9.10;;
76593;SDS011;65482;50.240;14.302;2023-03-23T04:24:09;15.82;;;8.98;;
76593;SDS011;65482;50.240;14.302;2023-03-23T04:26:52;17.17;;;9.73;;
76593;SDS011;65482;50.240;14.302;2023-03-23T04:29:49;16.48;;;8.02;;
76593;SDS011;65482;50.240;14.302;2023-03-23T04:32:43;13.02;;;6.70;;
76593;SDS011;65482;50.240;14.302;2023-03-23T04:35:34;13.70;;;6.72;;
76593;SDS011;65482;50.240;14.302;2023-03-23T04:38:30;12.45;;;5.28;;
76593;SDS011;65482;50.240;14.302;2023-03-23T04:41:37;10.55;;;5.65;;
76593;SDS011;65482;50.240;14.302;2023-03-23T04:44:06;9.38;;;5.40;;
76593;SDS011;65482;50.240;14.302;2023-03-23T04:47:05;9.07;;;5.65;;
76593;SDS011;65482;50.240;14.302;2023-03-23T04:49:42;6.72;;;4.25;;
76593;SDS011;65482;50.240;14.302;2023-03-23T04:52:31;5.72;;;3.75;;
76593;SDS011;65482;50.240;14.302;2023-03-23T04:55:53;7.57;;;3.70;;
76593;SDS011;65482;50.240;14.302;2023-03-23T05:01:16;5.90;;;2.88;;
76593;SDS011;65482;50.240;14.302;2023-03-23T05:04:00;10.55;;;3.75;;
76593;SDS011;65482;50.240;14.302;2023-03-23T05:07:13;6.50;;;3.17;;
76593;SDS011;65482;50.240;14.302;2023-03-23T05:10:17;7.35;;;3.42;;
76593;SDS011;65482;50.240;14.302;2023-03-23T05:12:52;6.85;;;3.63;;
76593;SDS011;65482;50.240;14.302;2023-03-23T05:15:44;8.23;;;3.30;;
76593;SDS011;65482;50.240;14.302;2023-03-23T05:22:01;4.97;;;2.80;;
76593;SDS011;65482;50.240;14.302;2023-03-23T05:24:44;17.60;;;3.75;;
76593;SDS011;65482;50.240;14.302;2023-03-23T05:27:32;11.68;;;2.83;;
76593;SDS011;65482;50.240;14.302;2023-03-23T05:30:10;6.32;;;3.00;;
76593;SDS011;65482;50.240;14.302;2023-03-23T05:33:16;4.03;;;2.80;;
76593;SDS011;65482;50.240;14.302;2023-03-23T05:36:18;4.82;;;2.65;;
76593;SDS011;65482;50.240;14.302;2023-03-23T05:52:08;6.53;;;2.83;;
76593;SDS011;65482;50.240;14.302;2023-03-23T05:55:17;5.00;;;3.00;;
76593;SDS011;65482;50.240;14.302;2023-03-23T05:57:51;8.70;;;3.15;;
76593;SDS011;65482;50.240;14.302;2023-03-23T06:04:20;5.97;;;2.47;;
76593;SDS011;65482;50.240;14.302;2023-03-23T06:07:15;5.75;;;2.60;;
76593;SDS011;65482;50.240;14.302;2023-03-23T06:10:15;7.20;;;2.53;;
76593;SDS011;65482;50.240;14.302;2023-03-23T06:16:24;3.67;;;2.15;;
76593;SDS011;65482;50.240;14.302;2023-03-23T06:19:24;4.13;;;2.17;;
76593;SDS011;65482;50.240;14.302;2023-03-23T06:25:41;3.47;;;2.20;;
76593;SDS011;65482;50.240;14.302;2023-03-23T08:23:03;3.88;;;1.92;;
76593;SDS011;65482;50.240;14.302;2023-03-23T08:30:15;7.57;;;1.70;;
76593;SDS011;65482;50.240;14.302;2023-03-23T08:40:18;13.45;;;2.47;;
76593;SDS011;65482;50.240;14.302;2023-03-23T08:51:02;6.68;;;1.55;;
76593;SDS011;65482;50.240;14.302;2023-03-23T08:59:39;4.38;;;1.30;;
76593;SDS011;65482;50.240;14.302;2023-03-23T09:36:41;6.18;;;1.70;;
76593;SDS011;65482;50.240;14.302;2023-03-23T10:28:54;10.63;;;2.35;;
76593;SDS011;65482;50.240;14.302;2023-03-23T10:31:32;14.93;;;1.80;;
76593;SDS011;65482;50.240;14.302;2023-03-23T10:34:05;11.18;;;1.95;;
76593;SDS011;65482;50.240;14.302;2023-03-23T10:36:52;5.97;;;1.60;;
76593;SDS011;65482;50.240;14.302;2023-03-23T10:39:38;4.97;;;1.77;;
76593;SDS011;65482;50.240;14.302;2023-03-23T10:42:21;4.63;;;1.55;;
76593;SDS011;65482;50.240;14.302;2023-03-23T10:52:46;3.03;;;1.40;;
76593;SDS011;65482;50.240;14.302;2023-03-23T10:55:37;13.30;;;1.55;;
76593;SDS011;65482;50.240;14.302;2023-03-23T10:58:06;16.48;;;2.17;;
76593;SDS011;65482;50.240;14.302;2023-03-23T11:00:40;15.32;;;1.98;;
76593;SDS011;65482;50.240;14.302;2023-03-23T11:05:51;9.65;;;1.70;;
76593;SDS011;65482;50.240;14.302;2023-03-23T11:08:23;9.15;;;1.88;;
76593;SDS011;65482;50.240;14.302;2023-03-23T11:10:56;11.07;;;1.83;;
76593;SDS011;65482;50.240;14.302;2023-03-23T11:13:27;12.57;;;1.95;;
76593;SDS011;65482;50.240;14.302;2023-03-23T11:15:57;9.45;;;2.05;;
76593;SDS011;65482;50.240;14.302;2023-03-23T11:18:26;12.90;;;2.40;;
76593;SDS011;65482;50.240;14.302;2023-03-23T11:21:01;7.75;;;1.85;;
76593;SDS011;65482;50.240;14.302;2023-03-23T11:23:32;8.45;;;1.58;;
76593;SDS011;65482;50.240;14.302;2023-03-23T11:26:12;8.30;;;1.63;;
76593;SDS011;65482;50.240;14.302;2023-03-23T11:28:57;9.35;;;1.70;;
76593;SDS011;65482;50.240;14.302;2023-03-23T11:31:44;6.50;;;1.65;;
76593;SDS011;65482;50.240;14.302;2023-03-23T11:36:50;8.90;;;1.90;;
76593;SDS011;65482;50.240;14.302;2023-03-23T11:41:52;4.72;;;1.73;;
76593;SDS011;65482;50.240;14.302;2023-03-23T11:44:22;7.65;;;1.63;;
76593;SDS011;65482;50.240;14.302;2023-03-23T11:53:50;2.22;;;1.10;;
76593;SDS011;65482;50.240;14.302;2023-03-23T12:37:16;2.03;;;1.50;;
76593;SDS011;65482;50.240;14.302;2023-03-23T12:39:50;4.13;;;1.48;;
76593;SDS011;65482;50.240;14.302;2023-03-23T12:45:12;4.07;;;1.60;;
76593;SDS011;65482;50.240;14.302;2023-03-23T12:47:57;9.88;;;1.60;;
76593;SDS011;65482;50.240;14.302;2023-03-23T12:53:26;6.10;;;1.40;;
76593;SDS011;65482;50.240;14.302;2023-03-23T13:25:07;2.70;;;1.50;;
76593;SDS011;65482;50.240;14.302;2023-03-23T13:27:59;2.15;;;1.50;;
76593;SDS011;65482;50.240;14.302;2023-03-23T13:30:36;6.63;;;1.50;;
76593;SDS011;65482;50.240;14.302;2023-03-23T13:33:04;3.25;;;1.50;;
76593;SDS011;65482;50.240;14.302;2023-03-23T13:35:33;3.33;;;1.50;;
76593;SDS011;65482;50.240;14.302;2023-03-23T13:38:10;4.32;;;1.63;;
76593;SDS011;65482;50.240;14.302;2023-03-23T13:40:43;4.10;;;1.58;;
76593;SDS011;65482;50.240;14.302;2023-03-23T13:43:10;7.90;;;1.60;;
76593;SDS011;65482;50.240;14.302;2023-03-23T13:45:43;4.45;;;1.60;;
76593;SDS011;65482;50.240;14.302;2023-03-23T13:50:58;7.32;;;2.42;;
76593;SDS011;65482;50.240;14.302;2023-03-23T13:53:45;6.97;;;2.03;;
76593;SDS011;65482;50.240;14.302;2023-03-23T13:56:31;2.25;;;1.55;;
76593;SDS011;65482;50.240;14.302;2023-03-23T13:59:07;4.65;;;1.60;;
76593;SDS011;65482;50.240;14.302;2023-03-23T14:01:44;3.35;;;1.60;;
76593;SDS011;65482;50.240;14.302;2023-03-23T14:04:30;6.18;;;1.90;;
76593;SDS011;65482;50.240;14.302;2023-03-23T14:07:07;4.05;;;1.70;;
76593;SDS011;65482;50.240;14.302;2023-03-23T14:09:39;6.43;;;1.83;;
76593;SDS011;65482;50.240;14.302;2023-03-23T14:12:18;6.30;;;1.60;;
76593;SDS011;65482;50.240;14.302;2023-03-23T14:14:50;3.10;;;1.70;;
76593;SDS011;65482;50.240;14.302;2023-03-23T14:17:29;6.18;;;1.70;;
76593;SDS011;65482;50.240;14.302;2023-03-23T14:19:59;3.05;;;1.60;;
76593;SDS011;65482;50.240;14.302;2023-03-23T14:22:36;5.78;;;1.70;;
76593;SDS011;65482;50.240;14.302;2023-03-23T14:25:18;2.30;;;1.50;;
76593;SDS011;65482;50.240;14.302;2023-03-23T14:27:46;2.95;;;1.70;;
76593;SDS011;65482;50.240;14.302;2023-03-23T14:30:17;3.33;;;1.50;;
76593;SDS011;65482;50.240;14.302;2023-03-23T14:32:45;6.93;;;1.85;;
76593;SDS011;65482;50.240;14.302;2023-03-23T14:35:54;7.90;;;1.85;;
76593;SDS011;65482;50.240;14.302;2023-03-23T14:38:13;2.33;;;1.70;;
76593;SDS011;65482;50.240;14.302;2023-03-23T14:40:52;3.95;;;1.88;;
76593;SDS011;65482;50.240;14.302;2023-03-23T14:43:24;17.05;;;2.15;;
76593;SDS011;65482;50.240;14.302;2023-03-23T14:45:55;5.57;;;1.67;;
76593;SDS011;65482;50.240;14.302;2023-03-23T14:48:23;3.75;;;1.60;;
76593;SDS011;65482;50.240;14.302;2023-03-23T14:50:50;2.67;;;1.60;;
76593;SDS011;65482;50.240;14.302;2023-03-23T14:56:11;7.13;;;2.00;;
76593;SDS011;65482;50.240;14.302;2023-03-23T14:58:45;9.45;;;1.80;;
76593;SDS011;65482;50.240;14.302;2023-03-23T15:01:14;7.20;;;1.90;;
76593;SDS011;65482;50.240;14.302;2023-03-23T15:03:55;13.05;;;1.95;;
76593;SDS011;65482;50.240;14.302;2023-03-23T15:06:27;7.25;;;1.80;;
76593;SDS011;65482;50.240;14.302;2023-03-23T15:08:57;2.88;;;1.80;;
76593;SDS011;65482;50.240;14.302;2023-03-23T15:11:28;6.80;;;1.67;;
76593;SDS011;65482;50.240;14.302;2023-03-23T15:13:57;2.97;;;1.40;;
76593;SDS011;65482;50.240;14.302;2023-03-23T15:16:31;2.60;;;1.30;;
76593;SDS011;65482;50.240;14.302;2023-03-23T15:18:59;4.43;;;1.60;;
76593;SDS011;65482;50.240;14.302;2023-03-23T15:23:59;4.20;;;1.48;;
76593;SDS011;65482;50.240;14.302;2023-03-23T15:31:34;4.22;;;1.50;;
76593;SDS011;65482;50.240;14.302;2023-03-23T15:34:04;9.07;;;1.52;;
76593;SDS011;65482;50.240;14.302;2023-03-23T15:36:33;5.40;;;1.63;;
76593;SDS011;65482;50.240;14.302;2023-03-23T15:39:00;7.18;;;1.60;;
76593;SDS011;65482;50.240;14.302;2023-03-23T15:41:27;3.60;;;1.45;;
76593;SDS011;65482;50.240;14.302;2023-03-23T15:44:08;3.25;;;1.95;;
76593;SDS011;65482;50.240;14.302;2023-03-23T15:46:38;12.98;;;1.77;;
76593;SDS011;65482;50.240;14.302;2023-03-23T15:49:15;7.95;;;1.58;;
76593;SDS011;65482;50.240;14.302;2023-03-23T15:51:41;6.90;;;1.70;;
76593;SDS011;65482;50.240;14.302;2023-03-23T15:54:09;3.22;;;1.60;;
76593;SDS011;65482;50.240;14.302;2023-03-23T15:56:38;3.40;;;1.58;;
76593;SDS011;65482;50.240;14.302;2023-03-23T15:59:04;11.13;;;2.30;;
76593;SDS011;65482;50.240;14.302;2023-03-23T16:01:29;3.00;;;1.80;;
76593;SDS011;65482;50.240;14.302;2023-03-23T16:04:06;6.60;;;2.00;;
76593;SDS011;65482;50.240;14.302;2023-03-23T16:06:34;2.65;;;1.58;;
76593;SDS011;65482;50.240;14.302;2023-03-23T16:09:02;2.45;;;1.55;;
76593;SDS011;65482;50.240;14.302;2023-03-23T16:11:29;5.15;;;1.95;;
76593;SDS011;65482;50.240;14.302;2023-03-23T16:13:56;4.78;;;1.65;;
76593;SDS011;65482;50.240;14.302;2023-03-23T16:18:51;44.55;;;26.15;;
76593;SDS011;65482;50.240;14.302;2023-03-23T16:21:17;3.75;;;1.50;;
76593;SDS011;65482;50.240;14.302;2023-03-23T16:23:43;4.43;;;1.38;;
76593;SDS011;65482;50.240;14.302;2023-03-23T16:26:11;3.55;;;1.52;;
76593;SDS011;65482;50.240;14.302;2023-03-23T16:28:39;2.80;;;1.55;;
76593;SDS011;65482;50.240;14.302;2023-03-23T16:31:05;2.90;;;1.40;;
76593;SDS011;65482;50.240;14.302;2023-03-23T16:33:31;4.90;;;1.58;;
76593;SDS011;65482;50.240;14.302;2023-03-23T16:35:56;5.05;;;1.48;;
76593;SDS011;65482;50.240;14.302;2023-03-23T16:38:22;3.13;;;1.40;;
76593;SDS011;65482;50.240;14.302;2023-03-23T16:40:48;1.52;;;1.10;;
76593;SDS011;65482;50.240;14.302;2023-03-23T16:43:14;3.45;;;1.38;;
76593;SDS011;65482;50.240;14.302;2023-03-23T16:45:41;3.30;;;1.40;;
76593;SDS011;65482;50.240;14.302;2023-03-23T16:48:08;1.98;;;1.25;;
76593;SDS011;65482;50.240;14.302;2023-03-23T16:50:34;2.65;;;1.40;;
76593;SDS011;65482;50.240;14.302;2023-03-23T16:53:01;4.18;;;1.77;;
76593;SDS011;65482;50.240;14.302;2023-03-23T16:55:28;2.90;;;1.80;;
76593;SDS011;65482;50.240;14.302;2023-03-23T16:57:55;1.65;;;1.30;;
76593;SDS011;65482;50.240;14.302;2023-03-23T17:00:21;3.42;;;1.75;;
76593;SDS011;65482;50.240;14.302;2023-03-23T17:02:48;3.85;;;1.60;;
76593;SDS011;65482;50.240;14.302;2023-03-23T17:05:22;2.87;;;1.90;;
76593;SDS011;65482;50.240;14.302;2023-03-23T17:07:50;3.35;;;1.90;;
76593;SDS011;65482;50.240;14.302;2023-03-23T17:10:16;4.00;;;1.95;;
76593;SDS011;65482;50.240;14.302;2023-03-23T17:12:42;4.15;;;2.03;;
76593;SDS011;65482;50.240;14.302;2023-03-23T17:15:09;3.78;;;1.73;;
76593;SDS011;65482;50.240;14.302;2023-03-23T17:17:35;4.38;;;1.80;;
76593;SDS011;65482;50.240;14.302;2023-03-23T17:20:02;3.33;;;2.08;;
76593;SDS011;65482;50.240;14.302;2023-03-23T17:22:28;3.38;;;2.20;;
76593;SDS011;65482;50.240;14.302;2023-03-23T17:24:55;5.35;;;2.00;;
76593;SDS011;65482;50.240;14.302;2023-03-23T17:27:22;6.35;;;2.60;;
76593;SDS011;65482;50.240;14.302;2023-03-23T17:29:49;3.47;;;2.35;;
76593;SDS011;65482;50.240;14.302;2023-03-23T17:32:14;7.28;;;2.53;;
76593;SDS011;65482;50.240;14.302;2023-03-23T17:34:40;4.80;;;2.17;;
76593;SDS011;65482;50.240;14.302;2023-03-23T17:37:06;2.63;;;1.90;;
76593;SDS011;65482;50.240;14.302;2023-03-23T17:39:33;2.88;;;2.00;;
76593;SDS011;65482;50.240;14.302;2023-03-23T17:41:59;3.83;;;1.85;;
76593;SDS011;65482;50.240;14.302;2023-03-23T17:44:25;2.90;;;1.98;;
76593;SDS011;65482;50.240;14.302;2023-03-23T17:46:51;2.88;;;1.98;;
76593;SDS011;65482;50.240;14.302;2023-03-23T17:49:21;4.65;;;1.90;;
76593;SDS011;65482;50.240;14.302;2023-03-23T17:51:48;4.38;;;2.13;;
76593;SDS011;65482;50.240;14.302;2023-03-23T17:54:14;4.25;;;2.25;;
76593;SDS011;65482;50.240;14.302;2023-03-23T17:56:39;9.45;;;4.90;;
76593;SDS011;65482;50.240;14.302;2023-03-23T17:59:05;4.90;;;3.17;;
76593;SDS011;65482;50.240;14.302;2023-03-23T18:01:32;6.93;;;3.83;;
76593;SDS011;65482;50.240;14.302;2023-03-23T18:03:58;6.50;;;3.17;;
76593;SDS011;65482;50.240;14.302;2023-03-23T18:06:23;5.88;;;2.53;;
76593;SDS011;65482;50.240;14.302;2023-03-23T18:08:49;3.03;;;1.85;;
76593;SDS011;65482;50.240;14.302;2023-03-23T18:11:15;3.10;;;1.90;;
76593;SDS011;65482;50.240;14.302;2023-03-23T18:13:40;4.68;;;2.03;;
76593;SDS011;65482;50.240;14.302;2023-03-23T18:16:06;5.55;;;2.22;;
76593;SDS011;65482;50.240;14.302;2023-03-23T18:18:33;6.20;;;3.53;;
76593;SDS011;65482;50.240;14.302;2023-03-23T18:21:00;6.10;;;3.22;;
76593;SDS011;65482;50.240;14.302;2023-03-23T18:23:28;3.83;;;2.50;;
76593;SDS011;65482;50.240;14.302;2023-03-23T18:26:04;4.30;;;2.58;;
76593;SDS011;65482;50.240;14.302;2023-03-23T18:28:31;10.55;;;2.83;;
76593;SDS011;65482;50.240;14.302;2023-03-23T18:31:01;4.18;;;2.47;;
76593;SDS011;65482;50.240;14.302;2023-03-23T18:33:38;4.25;;;2.33;;
76593;SDS011;65482;50.240;14.302;2023-03-23T18:36:07;5.80;;;2.30;;
76593;SDS011;65482;50.240;14.302;2023-03-23T18:38:33;4.68;;;2.25;;
76593;SDS011;65482;50.240;14.302;2023-03-23T18:41:00;3.78;;;1.90;;
76593;SDS011;65482;50.240;14.302;2023-03-23T18:43:26;3.08;;;1.92;;
76593;SDS011;65482;50.240;14.302;2023-03-23T18:45:52;3.30;;;1.90;;
76593;SDS011;65482;50.240;14.302;2023-03-23T18:48:21;3.38;;;2.08;;
76593;SDS011;65482;50.240;14.302;2023-03-23T18:50:48;3.95;;;2.40;;
76593;SDS011;65482;50.240;14.302;2023-03-23T18:53:18;5.45;;;2.70;;
76593;SDS011;65482;50.240;14.302;2023-03-23T18:55:45;6.45;;;3.38;;
76593;SDS011;65482;50.240;14.302;2023-03-23T18:58:13;5.43;;;2.80;;
76593;SDS011;65482;50.240;14.302;2023-03-23T19:00:40;5.50;;;2.80;;
76593;SDS011;65482;50.240;14.302;2023-03-23T19:03:07;4.53;;;2.63;;
76593;SDS011;65482;50.240;14.302;2023-03-23T19:05:34;4.55;;;2.85;;
76593;SDS011;65482;50.240;14.302;2023-03-23T19:08:00;5.78;;;2.75;;
76593;SDS011;65482;50.240;14.302;2023-03-23T19:10:28;5.18;;;3.15;;
76593;SDS011;65482;50.240;14.302;2023-03-23T19:12:54;6.47;;;3.53;;
76593;SDS011;65482;50.240;14.302;2023-03-23T19:15:20;6.25;;;3.70;;
76593;SDS011;65482;50.240;14.302;2023-03-23T19:17:46;4.18;;;2.58;;
76593;SDS011;65482;50.240;14.302;2023-03-23T19:20:12;4.78;;;2.88;;
76593;SDS011;65482;50.240;14.302;2023-03-23T19:22:38;3.50;;;2.70;;
76593;SDS011;65482;50.240;14.302;2023-03-23T19:25:05;4.05;;;2.40;;
76593;SDS011;65482;50.240;14.302;2023-03-23T19:27:36;3.72;;;2.45;;
76593;SDS011;65482;50.240;14.302;2023-03-23T19:30:02;3.10;;;2.50;;
76593;SDS011;65482;50.240;14.302;2023-03-23T19:32:29;7.00;;;3.40;;
76593;SDS011;65482;50.240;14.302;2023-03-23T19:34:57;5.15;;;3.50;;
76593;SDS011;65482;50.240;14.302;2023-03-23T19:37:23;6.93;;;3.85;;
76593;SDS011;65482;50.240;14.302;2023-03-23T19:39:48;7.68;;;4.80;;
76593;SDS011;65482;50.240;14.302;2023-03-23T19:42:15;6.93;;;4.68;;
76593;SDS011;65482;50.240;14.302;2023-03-23T19:44:42;9.95;;;6.00;;
76593;SDS011;65482;50.240;14.302;2023-03-23T19:47:08;10.13;;;6.13;;
76593;SDS011;65482;50.240;14.302;2023-03-23T19:49:34;13.82;;;7.13;;
76593;SDS011;65482;50.240;14.302;2023-03-23T19:52:00;11.57;;;8.05;;
76593;SDS011;65482;50.240;14.302;2023-03-23T19:54:26;14.85;;;8.05;;
76593;SDS011;65482;50.240;14.302;2023-03-23T19:56:52;10.30;;;6.88;;
76593;SDS011;65482;50.240;14.302;2023-03-23T19:59:18;10.75;;;6.45;;
76593;SDS011;65482;50.240;14.302;2023-03-23T20:01:46;9.65;;;6.65;;
76593;SDS011;65482;50.240;14.302;2023-03-23T20:04:12;8.52;;;5.55;;
76593;SDS011;65482;50.240;14.302;2023-03-23T20:06:38;10.23;;;5.80;;
76593;SDS011;65482;50.240;14.302;2023-03-23T20:09:04;9.40;;;5.60;;
76593;SDS011;65482;50.240;14.302;2023-03-23T20:11:30;9.00;;;5.55;;
76593;SDS011;65482;50.240;14.302;2023-03-23T20:13:57;8.73;;;5.35;;
76593;SDS011;65482;50.240;14.302;2023-03-23T20:16:23;12.70;;;6.00;;
76593;SDS011;65482;50.240;14.302;2023-03-23T20:18:49;10.30;;;6.75;;
76593;SDS011;65482;50.240;14.302;2023-03-23T20:21:16;18.25;;;9.68;;
76593;SDS011;65482;50.240;14.302;2023-03-23T20:23:50;18.50;;;10.50;;
76593;SDS011;65482;50.240;14.302;2023-03-23T20:26:19;18.83;;;10.63;;
76593;SDS011;65482;50.240;14.302;2023-03-23T20:28:56;20.92;;;12.98;;
76593;SDS011;65482;50.240;14.302;2023-03-23T20:31:24;23.92;;;12.55;;
76593;SDS011;65482;50.240;14.302;2023-03-23T20:33:53;23.00;;;12.95;;
76593;SDS011;65482;50.240;14.302;2023-03-23T20:36:26;24.77;;;14.43;;
76593;SDS011;65482;50.240;14.302;2023-03-23T20:38:53;25.00;;;15.30;;
76593;SDS011;65482;50.240;14.302;2023-03-23T20:41:21;23.33;;;13.63;;
76593;SDS011;65482;50.240;14.302;2023-03-23T20:43:47;21.83;;;12.13;;
76593;SDS011;65482;50.240;14.302;2023-03-23T20:46:13;21.60;;;12.25;;
76593;SDS011;65482;50.240;14.302;2023-03-23T20:48:38;18.05;;;11.20;;
76593;SDS011;65482;50.240;14.302;2023-03-23T20:51:05;19.10;;;11.27;;
76593;SDS011;65482;50.240;14.302;2023-03-23T20:53:33;18.45;;;9.93;;
76593;SDS011;65482;50.240;14.302;2023-03-23T20:56:00;20.48;;;10.95;;
76593;SDS011;65482;50.240;14.302;2023-03-23T20:58:29;18.17;;;10.40;;
76593;SDS011;65482;50.240;14.302;2023-03-23T21:00:56;18.45;;;10.10;;
76593;SDS011;65482;50.240;14.302;2023-03-23T21:03:29;18.23;;;10.48;;
76593;SDS011;65482;50.240;14.302;2023-03-23T21:05:59;18.60;;;10.73;;
76593;SDS011;65482;50.240;14.302;2023-03-23T21:08:26;18.83;;;10.20;;
76593;SDS011;65482;50.240;14.302;2023-03-23T21:10:54;16.30;;;9.55;;
76593;SDS011;65482;50.240;14.302;2023-03-23T21:13:21;15.43;;;9.65;;
76593;SDS011;65482;50.240;14.302;2023-03-23T21:15:47;21.30;;;11.05;;
76593;SDS011;65482;50.240;14.302;2023-03-23T21:18:13;20.63;;;12.23;;
76593;SDS011;65482;50.240;14.302;2023-03-23T21:20:40;19.92;;;11.10;;
76593;SDS011;65482;50.240;14.302;2023-03-23T21:23:06;18.67;;;10.90;;
76593;SDS011;65482;50.240;14.302;2023-03-23T21:25:32;20.33;;;11.35;;
76593;SDS011;65482;50.240;14.302;2023-03-23T21:28:01;20.85;;;11.73;;
76593;SDS011;65482;50.240;14.302;2023-03-23T21:30:29;20.63;;;11.88;;
76593;SDS011;65482;50.240;14.302;2023-03-23T21:32:55;19.83;;;11.93;;
76593;SDS011;65482;50.240;14.302;2023-03-23T21:35:21;18.83;;;11.40;;
76593;SDS011;65482;50.240;14.302;2023-03-23T21:37:46;20.15;;;11.73;;
76593;SDS011;65482;50.240;14.302;2023-03-23T21:40:18;20.48;;;10.57;;
76593;SDS011;65482;50.240;14.302;2023-03-23T21:42:45;16.83;;;8.52;;
76593;SDS011;65482;50.240;14.302;2023-03-23T21:45:14;14.63;;;8.20;;
76593;SDS011;65482;50.240;14.302;2023-03-23T21:47:45;15.68;;;8.63;;
76593;SDS011;65482;50.240;14.302;2023-03-23T21:50:12;14.85;;;8.65;;
76593;SDS011;65482;50.240;14.302;2023-03-23T21:52:39;15.60;;;8.23;;
76593;SDS011;65482;50.240;14.302;2023-03-23T21:55:10;17.88;;;8.77;;
76593;SDS011;65482;50.240;14.302;2023-03-23T21:57:36;13.90;;;6.95;;